sensor_id;sensor_type;location;lat;lon;timestamp;temperature;humidity
12329;DHT22;6230;52.390;10.256;2024-02-16T00:00:10;14.50;77.60
12329;DHT22;6230;52.390;10.256;2024-02-16T00:02:39;14.50;76.80
12329;DHT22;6230;52.390;10.256;2024-02-16T00:05:06;14.50;76.90
12329;DHT22;6230;52.390;10.256;2024-02-16T00:07:33;14.50;77.10
12329;DHT22;6230;52.390;10.256;2024-02-16T00:09:59;14.40;77.20
12329;DHT22;6230;52.390;10.256;2024-02-16T00:12:25;14.30;77.20
12329;DHT22;6230;52.390;10.256;2024-02-16T00:14:50;14.30;77.40
12329;DHT22;6230;52.390;10.256;2024-02-16T00:17:16;14.30;77.50
12329;DHT22;6230;52.390;10.256;2024-02-16T00:19:42;14.30;77.50
12329;DHT22;6230;52.390;10.256;2024-02-16T00:22:07;14.30;77.60
12329;DHT22;6230;52.390;10.256;2024-02-16T00:24:34;14.20;77.60
12329;DHT22;6230;52.390;10.256;2024-02-16T00:26:59;14.30;77.80
12329;DHT22;6230;52.390;10.256;2024-02-16T00:29:25;14.20;77.90
12329;DHT22;6230;52.390;10.256;2024-02-16T00:31:51;14.20;78.00
12329;DHT22;6230;52.390;10.256;2024-02-16T00:34:17;14.20;78.20
12329;DHT22;6230;52.390;10.256;2024-02-16T00:36:42;14.10;78.10
12329;DHT22;6230;52.390;10.256;2024-02-16T00:39:08;14.20;78.10
12329;DHT22;6230;52.390;10.256;2024-02-16T00:41:33;14.10;78.00
12329;DHT22;6230;52.390;10.256;2024-02-16T00:43:59;14.10;78.20
12329;DHT22;6230;52.390;10.256;2024-02-16T00:46:25;14.10;78.20
12329;DHT22;6230;52.390;10.256;2024-02-16T00:48:52;14.10;78.20
12329;DHT22;6230;52.390;10.256;2024-02-16T00:51:17;14.10;78.30
12329;DHT22;6230;52.390;10.256;2024-02-16T00:53:43;14.10;78.20
12329;DHT22;6230;52.390;10.256;2024-02-16T00:56:09;14.10;78.20
12329;DHT22;6230;52.390;10.256;2024-02-16T00:58:35;14.10;78.20
12329;DHT22;6230;52.390;10.256;2024-02-16T01:01:00;14.10;78.20
12329;DHT22;6230;52.390;10.256;2024-02-16T01:03:26;14.10;78.20
12329;DHT22;6230;52.390;10.256;2024-02-16T01:05:54;14.10;78.30
12329;DHT22;6230;52.390;10.256;2024-02-16T01:08:20;14.10;78.30
12329;DHT22;6230;52.390;10.256;2024-02-16T01:10:46;14.10;78.20
12329;DHT22;6230;52.390;10.256;2024-02-16T01:13:12;14.10;78.20
12329;DHT22;6230;52.390;10.256;2024-02-16T01:15:38;14.00;78.20
12329;DHT22;6230;52.390;10.256;2024-02-16T01:18:04;14.00;78.40
12329;DHT22;6230;52.390;10.256;2024-02-16T01:20:30;14.00;78.30
12329;DHT22;6230;52.390;10.256;2024-02-16T01:22:57;14.00;78.40
12329;DHT22;6230;52.390;10.256;2024-02-16T01:25:23;13.90;78.40
12329;DHT22;6230;52.390;10.256;2024-02-16T01:27:48;13.90;78.40
12329;DHT22;6230;52.390;10.256;2024-02-16T01:30:14;13.90;78.40
12329;DHT22;6230;52.390;10.256;2024-02-16T01:32:41;13.90;78.30
12329;DHT22;6230;52.390;10.256;2024-02-16T01:35:07;14.00;78.20
12329;DHT22;6230;52.390;10.256;2024-02-16T01:37:32;14.00;78.00
12329;DHT22;6230;52.390;10.256;2024-02-16T01:39:58;14.00;78.00
12329;DHT22;6230;52.390;10.256;2024-02-16T01:42:24;14.00;77.90
12329;DHT22;6230;52.390;10.256;2024-02-16T01:44:50;14.00;77.90
12329;DHT22;6230;52.390;10.256;2024-02-16T01:47:16;13.90;77.80
12329;DHT22;6230;52.390;10.256;2024-02-16T01:49:44;13.90;77.90
12329;DHT22;6230;52.390;10.256;2024-02-16T01:52:10;13.90;77.90
12329;DHT22;6230;52.390;10.256;2024-02-16T01:54:36;13.90;77.90
12329;DHT22;6230;52.390;10.256;2024-02-16T01:57:02;13.90;77.90
12329;DHT22;6230;52.390;10.256;2024-02-16T01:59:28;13.80;77.90
12329;DHT22;6230;52.390;10.256;2024-02-16T02:01:54;13.80;77.80
12329;DHT22;6230;52.390;10.256;2024-02-16T02:04:19;13.90;77.80
12329;DHT22;6230;52.390;10.256;2024-02-16T02:06:45;13.90;77.60
12329;DHT22;6230;52.390;10.256;2024-02-16T02:09:11;13.90;77.50
12329;DHT22;6230;52.390;10.256;2024-02-16T02:11:36;14.00;77.30
12329;DHT22;6230;52.390;10.256;2024-02-16T02:14:03;14.00;77.10
12329;DHT22;6230;52.390;10.256;2024-02-16T02:16:28;14.00;77.00
12329;DHT22;6230;52.390;10.256;2024-02-16T02:18:54;14.00;77.00
12329;DHT22;6230;52.390;10.256;2024-02-16T02:21:19;13.90;77.00
12329;DHT22;6230;52.390;10.256;2024-02-16T02:23:45;13.90;77.10
12329;DHT22;6230;52.390;10.256;2024-02-16T02:26:14;13.90;77.20
12329;DHT22;6230;52.390;10.256;2024-02-16T02:28:40;13.80;77.30
12329;DHT22;6230;52.390;10.256;2024-02-16T02:31:05;13.80;77.50
12329;DHT22;6230;52.390;10.256;2024-02-16T02:33:31;13.70;77.60
12329;DHT22;6230;52.390;10.256;2024-02-16T02:35:56;13.70;77.80
12329;DHT22;6230;52.390;10.256;2024-02-16T02:38:22;13.60;77.80
12329;DHT22;6230;52.390;10.256;2024-02-16T02:40:47;13.60;78.00
12329;DHT22;6230;52.390;10.256;2024-02-16T02:43:13;13.60;77.90
12329;DHT22;6230;52.390;10.256;2024-02-16T02:45:39;13.60;77.90
12329;DHT22;6230;52.390;10.256;2024-02-16T02:48:05;13.60;77.90
12329;DHT22;6230;52.390;10.256;2024-02-16T02:50:31;13.50;77.90
12329;DHT22;6230;52.390;10.256;2024-02-16T02:52:57;13.50;77.90
12329;DHT22;6230;52.390;10.256;2024-02-16T02:55:22;13.50;77.90
12329;DHT22;6230;52.390;10.256;2024-02-16T02:57:48;13.50;77.90
12329;DHT22;6230;52.390;10.256;2024-02-16T03:00:14;13.50;78.00
12329;DHT22;6230;52.390;10.256;2024-02-16T03:02:40;13.50;78.00
12329;DHT22;6230;52.390;10.256;2024-02-16T03:05:07;13.40;78.00
12329;DHT22;6230;52.390;10.256;2024-02-16T03:07:33;13.50;78.10
12329;DHT22;6230;52.390;10.256;2024-02-16T03:09:59;13.40;78.00
12329;DHT22;6230;52.390;10.256;2024-02-16T03:12:25;13.40;78.00
12329;DHT22;6230;52.390;10.256;2024-02-16T03:14:50;13.50;78.00
12329;DHT22;6230;52.390;10.256;2024-02-16T03:17:16;13.50;77.90
12329;DHT22;6230;52.390;10.256;2024-02-16T03:19:41;13.50;77.80
12329;DHT22;6230;52.390;10.256;2024-02-16T03:22:07;13.50;77.70
12329;DHT22;6230;52.390;10.256;2024-02-16T03:24:33;13.50;77.70
12329;DHT22;6230;52.390;10.256;2024-02-16T03:26:59;13.50;77.50
12329;DHT22;6230;52.390;10.256;2024-02-16T03:29:26;13.60;77.50
12329;DHT22;6230;52.390;10.256;2024-02-16T03:31:51;13.50;77.50
12329;DHT22;6230;52.390;10.256;2024-02-16T03:34:17;13.50;77.50
12329;DHT22;6230;52.390;10.256;2024-02-16T03:36:43;13.60;77.40
12329;DHT22;6230;52.390;10.256;2024-02-16T03:39:08;13.60;77.40
12329;DHT22;6230;52.390;10.256;2024-02-16T03:41:34;13.50;77.30
12329;DHT22;6230;52.390;10.256;2024-02-16T03:44:00;13.50;77.30
12329;DHT22;6230;52.390;10.256;2024-02-16T03:46:26;13.50;77.30
12329;DHT22;6230;52.390;10.256;2024-02-16T03:48:51;13.50;77.30
12329;DHT22;6230;52.390;10.256;2024-02-16T03:51:17;13.50;77.30
12329;DHT22;6230;52.390;10.256;2024-02-16T03:53:43;13.60;77.30
12329;DHT22;6230;52.390;10.256;2024-02-16T03:56:10;13.60;77.20
12329;DHT22;6230;52.390;10.256;2024-02-16T03:58:38;13.60;77.10
12329;DHT22;6230;52.390;10.256;2024-02-16T04:01:04;13.60;77.00
12329;DHT22;6230;52.390;10.256;2024-02-16T04:03:32;13.60;77.00
12329;DHT22;6230;52.390;10.256;2024-02-16T04:05:57;13.60;77.00
12329;DHT22;6230;52.390;10.256;2024-02-16T04:08:25;13.70;77.10
12329;DHT22;6230;52.390;10.256;2024-02-16T04:10:50;13.70;76.90
12329;DHT22;6230;52.390;10.256;2024-02-16T04:13:16;13.80;76.80
12329;DHT22;6230;52.390;10.256;2024-02-16T04:15:41;13.80;76.70
12329;DHT22;6230;52.390;10.256;2024-02-16T04:18:07;13.80;76.60
12329;DHT22;6230;52.390;10.256;2024-02-16T04:20:32;13.80;76.60
12329;DHT22;6230;52.390;10.256;2024-02-16T04:22:58;13.80;76.60
12329;DHT22;6230;52.390;10.256;2024-02-16T04:25:24;13.80;76.70
12329;DHT22;6230;52.390;10.256;2024-02-16T04:27:49;13.80;76.80
12329;DHT22;6230;52.390;10.256;2024-02-16T04:30:15;13.80;76.80
12329;DHT22;6230;52.390;10.256;2024-02-16T04:32:40;13.90;76.80
12329;DHT22;6230;52.390;10.256;2024-02-16T04:35:06;13.90;76.80
12329;DHT22;6230;52.390;10.256;2024-02-16T04:37:37;13.90;76.70
12329;DHT22;6230;52.390;10.256;2024-02-16T04:40:04;14.00;76.70
12329;DHT22;6230;52.390;10.256;2024-02-16T04:42:31;14.00;76.70
12329;DHT22;6230;52.390;10.256;2024-02-16T04:44:56;14.00;76.60
12329;DHT22;6230;52.390;10.256;2024-02-16T04:47:22;14.10;76.60
12329;DHT22;6230;52.390;10.256;2024-02-16T04:49:47;14.10;76.60
12329;DHT22;6230;52.390;10.256;2024-02-16T04:52:13;14.10;76.60
12329;DHT22;6230;52.390;10.256;2024-02-16T04:54:39;14.10;76.60
12329;DHT22;6230;52.390;10.256;2024-02-16T04:57:06;14.20;77.40
12329;DHT22;6230;52.390;10.256;2024-02-16T04:59:31;14.20;76.60
12329;DHT22;6230;52.390;10.256;2024-02-16T05:01:57;14.20;76.50
12329;DHT22;6230;52.390;10.256;2024-02-16T05:04:22;14.20;76.40
12329;DHT22;6230;52.390;10.256;2024-02-16T05:06:48;14.30;76.40
12329;DHT22;6230;52.390;10.256;2024-02-16T05:09:14;14.30;76.40
12329;DHT22;6230;52.390;10.256;2024-02-16T05:11:45;14.30;76.30
12329;DHT22;6230;52.390;10.256;2024-02-16T05:14:11;14.30;76.40
12329;DHT22;6230;52.390;10.256;2024-02-16T05:16:43;14.30;76.30
12329;DHT22;6230;52.390;10.256;2024-02-16T05:19:09;14.30;76.30
12329;DHT22;6230;52.390;10.256;2024-02-16T05:21:35;14.30;76.20
12329;DHT22;6230;52.390;10.256;2024-02-16T05:24:00;14.30;76.20
12329;DHT22;6230;52.390;10.256;2024-02-16T05:26:26;14.30;76.30
12329;DHT22;6230;52.390;10.256;2024-02-16T05:28:51;14.30;76.20
12329;DHT22;6230;52.390;10.256;2024-02-16T05:31:17;14.30;76.20
12329;DHT22;6230;52.390;10.256;2024-02-16T05:33:45;14.30;76.10
12329;DHT22;6230;52.390;10.256;2024-02-16T05:36:11;14.40;76.30
12329;DHT22;6230;52.390;10.256;2024-02-16T05:38:38;14.40;76.20
12329;DHT22;6230;52.390;10.256;2024-02-16T05:41:10;14.40;76.10
12329;DHT22;6230;52.390;10.256;2024-02-16T05:43:37;14.40;76.10
12329;DHT22;6230;52.390;10.256;2024-02-16T05:46:03;14.40;76.00
12329;DHT22;6230;52.390;10.256;2024-02-16T05:48:32;14.40;76.10
12329;DHT22;6230;52.390;10.256;2024-02-16T05:51:00;14.40;76.10
12329;DHT22;6230;52.390;10.256;2024-02-16T05:53:26;14.40;76.10
12329;DHT22;6230;52.390;10.256;2024-02-16T05:55:53;14.40;76.10
12329;DHT22;6230;52.390;10.256;2024-02-16T05:58:18;14.40;76.10
12329;DHT22;6230;52.390;10.256;2024-02-16T06:00:44;14.40;76.10
12329;DHT22;6230;52.390;10.256;2024-02-16T06:03:12;14.40;76.10
12329;DHT22;6230;52.390;10.256;2024-02-16T06:05:38;14.40;76.10
12329;DHT22;6230;52.390;10.256;2024-02-16T06:08:04;14.40;76.10
12329;DHT22;6230;52.390;10.256;2024-02-16T06:10:30;14.40;75.90
12329;DHT22;6230;52.390;10.256;2024-02-16T06:12:56;14.40;76.00
12329;DHT22;6230;52.390;10.256;2024-02-16T06:15:22;14.50;76.00
12329;DHT22;6230;52.390;10.256;2024-02-16T06:17:48;14.50;76.00
12329;DHT22;6230;52.390;10.256;2024-02-16T06:20:15;14.50;76.00
12329;DHT22;6230;52.390;10.256;2024-02-16T06:22:41;14.50;75.90
12329;DHT22;6230;52.390;10.256;2024-02-16T06:25:08;14.50;75.90
12329;DHT22;6230;52.390;10.256;2024-02-16T06:27:33;14.50;75.90
12329;DHT22;6230;52.390;10.256;2024-02-16T06:29:59;14.50;75.90
12329;DHT22;6230;52.390;10.256;2024-02-16T06:32:24;14.50;75.90
12329;DHT22;6230;52.390;10.256;2024-02-16T06:34:51;14.50;75.90
12329;DHT22;6230;52.390;10.256;2024-02-16T06:37:17;14.50;76.00
12329;DHT22;6230;52.390;10.256;2024-02-16T06:39:42;14.40;75.80
12329;DHT22;6230;52.390;10.256;2024-02-16T06:42:08;14.50;76.00
12329;DHT22;6230;52.390;10.256;2024-02-16T06:44:36;14.40;76.70
12329;DHT22;6230;52.390;10.256;2024-02-16T06:47:02;14.50;75.90
12329;DHT22;6230;52.390;10.256;2024-02-16T06:49:27;14.50;75.80
12329;DHT22;6230;52.390;10.256;2024-02-16T06:51:53;14.40;75.80
12329;DHT22;6230;52.390;10.256;2024-02-16T06:54:20;14.40;75.70
12329;DHT22;6230;52.390;10.256;2024-02-16T06:56:46;14.40;75.60
12329;DHT22;6230;52.390;10.256;2024-02-16T06:59:12;14.40;75.50
12329;DHT22;6230;52.390;10.256;2024-02-16T07:01:37;14.40;75.30
12329;DHT22;6230;52.390;10.256;2024-02-16T07:04:03;14.40;75.30
12329;DHT22;6230;52.390;10.256;2024-02-16T07:06:28;14.50;75.30
12329;DHT22;6230;52.390;10.256;2024-02-16T07:08:54;14.50;75.30
12329;DHT22;6230;52.390;10.256;2024-02-16T07:11:19;14.50;75.40
12329;DHT22;6230;52.390;10.256;2024-02-16T07:13:46;14.50;75.30
12329;DHT22;6230;52.390;10.256;2024-02-16T07:16:12;14.50;75.30
12329;DHT22;6230;52.390;10.256;2024-02-16T07:18:37;14.50;75.30
12329;DHT22;6230;52.390;10.256;2024-02-16T07:21:03;14.60;75.30
12329;DHT22;6230;52.390;10.256;2024-02-16T07:23:29;14.60;75.20
12329;DHT22;6230;52.390;10.256;2024-02-16T07:25:55;14.60;75.20
12329;DHT22;6230;52.390;10.256;2024-02-16T07:28:25;14.60;75.10
12329;DHT22;6230;52.390;10.256;2024-02-16T07:30:51;14.60;75.00
12329;DHT22;6230;52.390;10.256;2024-02-16T07:33:18;14.60;75.00
12329;DHT22;6230;52.390;10.256;2024-02-16T07:35:44;14.60;75.10
12329;DHT22;6230;52.390;10.256;2024-02-16T07:38:10;14.60;75.10
12329;DHT22;6230;52.390;10.256;2024-02-16T07:40:35;14.60;75.10
12329;DHT22;6230;52.390;10.256;2024-02-16T07:43:01;14.60;75.00
12329;DHT22;6230;52.390;10.256;2024-02-16T07:45:28;14.70;75.10
12329;DHT22;6230;52.390;10.256;2024-02-16T07:47:54;14.70;75.00
12329;DHT22;6230;52.390;10.256;2024-02-16T07:50:21;14.70;75.00
12329;DHT22;6230;52.390;10.256;2024-02-16T07:52:48;14.70;75.00
12329;DHT22;6230;52.390;10.256;2024-02-16T07:55:13;14.70;75.00
12329;DHT22;6230;52.390;10.256;2024-02-16T07:57:39;14.80;75.00
12329;DHT22;6230;52.390;10.256;2024-02-16T08:00:05;14.80;75.00
12329;DHT22;6230;52.390;10.256;2024-02-16T08:02:32;14.80;74.90
12329;DHT22;6230;52.390;10.256;2024-02-16T08:04:58;14.90;74.90
12329;DHT22;6230;52.390;10.256;2024-02-16T08:07:24;14.90;74.90
12329;DHT22;6230;52.390;10.256;2024-02-16T08:09:50;14.90;74.90
12329;DHT22;6230;52.390;10.256;2024-02-16T08:12:16;14.90;74.80
12329;DHT22;6230;52.390;10.256;2024-02-16T08:14:42;15.00;74.80
12329;DHT22;6230;52.390;10.256;2024-02-16T08:17:08;15.00;74.80
12329;DHT22;6230;52.390;10.256;2024-02-16T08:19:36;15.10;74.80
12329;DHT22;6230;52.390;10.256;2024-02-16T08:22:02;15.10;74.80
12329;DHT22;6230;52.390;10.256;2024-02-16T08:24:31;15.10;74.80
12329;DHT22;6230;52.390;10.256;2024-02-16T08:26:57;15.20;74.90
12329;DHT22;6230;52.390;10.256;2024-02-16T08:29:22;15.20;74.70
12329;DHT22;6230;52.390;10.256;2024-02-16T08:31:49;15.20;74.70
12329;DHT22;6230;52.390;10.256;2024-02-16T08:34:15;15.30;74.70
12329;DHT22;6230;52.390;10.256;2024-02-16T08:36:45;15.30;74.70
12329;DHT22;6230;52.390;10.256;2024-02-16T08:39:12;15.40;74.70
12329;DHT22;6230;52.390;10.256;2024-02-16T08:41:37;15.40;74.70
12329;DHT22;6230;52.390;10.256;2024-02-16T08:44:04;15.40;74.70
12329;DHT22;6230;52.390;10.256;2024-02-16T08:46:29;15.50;74.70
12329;DHT22;6230;52.390;10.256;2024-02-16T08:48:55;15.50;74.80
12329;DHT22;6230;52.390;10.256;2024-02-16T08:51:21;15.50;74.70
12329;DHT22;6230;52.390;10.256;2024-02-16T08:53:47;15.60;74.70
12329;DHT22;6230;52.390;10.256;2024-02-16T08:56:12;15.60;74.60
12329;DHT22;6230;52.390;10.256;2024-02-16T08:58:38;15.60;74.60
12329;DHT22;6230;52.390;10.256;2024-02-16T09:01:05;15.70;74.80
12329;DHT22;6230;52.390;10.256;2024-02-16T09:03:30;15.80;74.80
12329;DHT22;6230;52.390;10.256;2024-02-16T09:06:02;15.90;74.80
12329;DHT22;6230;52.390;10.256;2024-02-16T09:08:28;15.90;74.80
12329;DHT22;6230;52.390;10.256;2024-02-16T09:11:01;16.00;74.70
12329;DHT22;6230;52.390;10.256;2024-02-16T09:13:35;16.10;74.70
12329;DHT22;6230;52.390;10.256;2024-02-16T09:16:02;16.20;74.60
12329;DHT22;6230;52.390;10.256;2024-02-16T09:18:29;16.20;74.50
12329;DHT22;6230;52.390;10.256;2024-02-16T09:20:54;16.20;74.40
12329;DHT22;6230;52.390;10.256;2024-02-16T09:23:20;16.20;74.40
12329;DHT22;6230;52.390;10.256;2024-02-16T09:25:45;16.30;74.40
12329;DHT22;6230;52.390;10.256;2024-02-16T09:28:14;16.30;74.40
12329;DHT22;6230;52.390;10.256;2024-02-16T09:30:40;16.30;74.40
12329;DHT22;6230;52.390;10.256;2024-02-16T09:33:05;16.30;74.40
12329;DHT22;6230;52.390;10.256;2024-02-16T09:35:32;16.40;74.40
12329;DHT22;6230;52.390;10.256;2024-02-16T09:37:58;16.40;74.40
12329;DHT22;6230;52.390;10.256;2024-02-16T09:40:23;16.40;74.40
12329;DHT22;6230;52.390;10.256;2024-02-16T09:42:49;16.50;74.30
12329;DHT22;6230;52.390;10.256;2024-02-16T09:45:15;16.50;74.30
12329;DHT22;6230;52.390;10.256;2024-02-16T09:47:47;16.50;74.10
12329;DHT22;6230;52.390;10.256;2024-02-16T09:50:15;16.60;74.20
12329;DHT22;6230;52.390;10.256;2024-02-16T09:52:42;16.60;74.10
12329;DHT22;6230;52.390;10.256;2024-02-16T09:55:13;16.60;74.00
12329;DHT22;6230;52.390;10.256;2024-02-16T09:57:38;16.60;73.90
12329;DHT22;6230;52.390;10.256;2024-02-16T10:00:04;16.70;73.80
12329;DHT22;6230;52.390;10.256;2024-02-16T10:02:43;16.70;73.70
12329;DHT22;6230;52.390;10.256;2024-02-16T10:05:17;16.60;73.70
12329;DHT22;6230;52.390;10.256;2024-02-16T10:07:43;16.70;73.70
12329;DHT22;6230;52.390;10.256;2024-02-16T10:10:26;16.70;73.50
12329;DHT22;6230;52.390;10.256;2024-02-16T10:13:04;16.70;73.50
12329;DHT22;6230;52.390;10.256;2024-02-16T10:15:31;16.70;73.40
12329;DHT22;6230;52.390;10.256;2024-02-16T10:18:06;16.80;73.50
12329;DHT22;6230;52.390;10.256;2024-02-16T10:20:33;16.80;73.50
12329;DHT22;6230;52.390;10.256;2024-02-16T10:23:25;16.80;73.30
12329;DHT22;6230;52.390;10.256;2024-02-16T10:25:51;16.90;73.60
12329;DHT22;6230;52.390;10.256;2024-02-16T10:28:17;17.00;73.80
12329;DHT22;6230;52.390;10.256;2024-02-16T10:30:46;17.10;73.70
12329;DHT22;6230;52.390;10.256;2024-02-16T10:33:12;17.30;74.10
12329;DHT22;6230;52.390;10.256;2024-02-16T10:35:41;17.50;73.90
12329;DHT22;6230;52.390;10.256;2024-02-16T10:38:07;17.70;73.70
12329;DHT22;6230;52.390;10.256;2024-02-16T10:40:40;17.90;73.20
12329;DHT22;6230;52.390;10.256;2024-02-16T10:43:06;18.10;73.00
12329;DHT22;6230;52.390;10.256;2024-02-16T10:45:38;18.10;72.60
12329;DHT22;6230;52.390;10.256;2024-02-16T10:48:05;18.10;72.20
12329;DHT22;6230;52.390;10.256;2024-02-16T10:50:34;18.10;72.00
12329;DHT22;6230;52.390;10.256;2024-02-16T10:53:18;18.00;71.50
12329;DHT22;6230;52.390;10.256;2024-02-16T10:55:45;17.90;71.30
12329;DHT22;6230;52.390;10.256;2024-02-16T10:58:11;17.80;71.40
12329;DHT22;6230;52.390;10.256;2024-02-16T11:00:51;17.80;71.50
12329;DHT22;6230;52.390;10.256;2024-02-16T11:03:18;17.70;71.50
12329;DHT22;6230;52.390;10.256;2024-02-16T11:05:46;17.60;71.10
12329;DHT22;6230;52.390;10.256;2024-02-16T11:08:14;17.50;71.10
12329;DHT22;6230;52.390;10.256;2024-02-16T11:10:40;17.50;71.20
12329;DHT22;6230;52.390;10.256;2024-02-16T11:13:06;17.50;71.00
12329;DHT22;6230;52.390;10.256;2024-02-16T11:15:34;17.40;71.10
12329;DHT22;6230;52.390;10.256;2024-02-16T11:18:03;17.40;71.30
12329;DHT22;6230;52.390;10.256;2024-02-16T11:20:36;17.40;71.40
12329;DHT22;6230;52.390;10.256;2024-02-16T11:23:08;17.40;71.60
12329;DHT22;6230;52.390;10.256;2024-02-16T11:25:34;17.40;71.50
12329;DHT22;6230;52.390;10.256;2024-02-16T11:28:02;17.40;71.40
12329;DHT22;6230;52.390;10.256;2024-02-16T11:30:34;17.50;71.50
12329;DHT22;6230;52.390;10.256;2024-02-16T11:33:03;17.50;71.40
12329;DHT22;6230;52.390;10.256;2024-02-16T11:35:30;17.50;71.40
12329;DHT22;6230;52.390;10.256;2024-02-16T11:37:56;17.60;71.60
12329;DHT22;6230;52.390;10.256;2024-02-16T11:40:22;17.50;71.60
12329;DHT22;6230;52.390;10.256;2024-02-16T11:42:47;17.50;71.50
12329;DHT22;6230;52.390;10.256;2024-02-16T11:45:13;17.50;71.60
12329;DHT22;6230;52.390;10.256;2024-02-16T11:47:38;17.50;71.60
12329;DHT22;6230;52.390;10.256;2024-02-16T11:50:06;17.50;71.70
12329;DHT22;6230;52.390;10.256;2024-02-16T11:52:34;17.50;71.80
12329;DHT22;6230;52.390;10.256;2024-02-16T11:55:00;17.50;71.80
12329;DHT22;6230;52.390;10.256;2024-02-16T11:57:29;17.50;71.80
12329;DHT22;6230;52.390;10.256;2024-02-16T11:59:55;17.50;71.90
12329;DHT22;6230;52.390;10.256;2024-02-16T12:02:23;17.60;71.90
12329;DHT22;6230;52.390;10.256;2024-02-16T12:04:57;17.60;71.90
12329;DHT22;6230;52.390;10.256;2024-02-16T12:07:26;17.60;71.80
12329;DHT22;6230;52.390;10.256;2024-02-16T12:10:00;17.70;71.80
12329;DHT22;6230;52.390;10.256;2024-02-16T12:12:26;17.70;71.80
12329;DHT22;6230;52.390;10.256;2024-02-16T12:14:53;17.70;71.80
12329;DHT22;6230;52.390;10.256;2024-02-16T12:17:19;17.70;71.90
12329;DHT22;6230;52.390;10.256;2024-02-16T12:19:46;17.70;71.90
12329;DHT22;6230;52.390;10.256;2024-02-16T12:22:17;17.70;72.00
12329;DHT22;6230;52.390;10.256;2024-02-16T12:24:44;17.80;72.00
12329;DHT22;6230;52.390;10.256;2024-02-16T12:27:10;17.80;72.00
12329;DHT22;6230;52.390;10.256;2024-02-16T12:29:36;17.90;72.00
12329;DHT22;6230;52.390;10.256;2024-02-16T12:32:01;17.90;72.00
12329;DHT22;6230;52.390;10.256;2024-02-16T12:34:27;17.90;72.10
12329;DHT22;6230;52.390;10.256;2024-02-16T12:36:53;18.00;72.00
12329;DHT22;6230;52.390;10.256;2024-02-16T12:39:18;18.00;71.90
12329;DHT22;6230;52.390;10.256;2024-02-16T12:41:46;18.00;71.70
12329;DHT22;6230;52.390;10.256;2024-02-16T12:44:12;18.00;71.60
12329;DHT22;6230;52.390;10.256;2024-02-16T12:46:37;18.10;71.80
12329;DHT22;6230;52.390;10.256;2024-02-16T12:49:04;18.10;71.80
12329;DHT22;6230;52.390;10.256;2024-02-16T12:51:30;18.10;71.90
12329;DHT22;6230;52.390;10.256;2024-02-16T12:53:55;18.20;72.00
12329;DHT22;6230;52.390;10.256;2024-02-16T12:56:21;18.30;72.10
12329;DHT22;6230;52.390;10.256;2024-02-16T12:58:47;18.40;72.00
12329;DHT22;6230;52.390;10.256;2024-02-16T13:01:13;18.50;71.90
12329;DHT22;6230;52.390;10.256;2024-02-16T13:03:39;18.50;71.90
12329;DHT22;6230;52.390;10.256;2024-02-16T13:06:05;18.60;71.70
12329;DHT22;6230;52.390;10.256;2024-02-16T13:08:31;18.70;71.80
12329;DHT22;6230;52.390;10.256;2024-02-16T13:10:57;18.70;71.60
12329;DHT22;6230;52.390;10.256;2024-02-16T13:13:23;18.70;71.40
12329;DHT22;6230;52.390;10.256;2024-02-16T13:15:49;18.80;71.50
12329;DHT22;6230;52.390;10.256;2024-02-16T13:18:15;18.80;71.60
12329;DHT22;6230;52.390;10.256;2024-02-16T13:20:41;18.80;71.20
12329;DHT22;6230;52.390;10.256;2024-02-16T13:23:07;18.80;70.90
12329;DHT22;6230;52.390;10.256;2024-02-16T13:25:33;18.80;71.00
12329;DHT22;6230;52.390;10.256;2024-02-16T13:27:58;18.70;70.80
12329;DHT22;6230;52.390;10.256;2024-02-16T13:30:25;18.70;70.90
12329;DHT22;6230;52.390;10.256;2024-02-16T13:32:50;18.70;70.80
12329;DHT22;6230;52.390;10.256;2024-02-16T13:35:16;18.70;70.90
12329;DHT22;6230;52.390;10.256;2024-02-16T13:37:42;18.60;70.70
12329;DHT22;6230;52.390;10.256;2024-02-16T13:40:08;18.60;70.90
12329;DHT22;6230;52.390;10.256;2024-02-16T13:42:41;18.60;70.80
12329;DHT22;6230;52.390;10.256;2024-02-16T13:45:07;18.60;70.80
12329;DHT22;6230;52.390;10.256;2024-02-16T13:47:33;18.60;70.80
12329;DHT22;6230;52.390;10.256;2024-02-16T13:49:59;18.50;70.80
12329;DHT22;6230;52.390;10.256;2024-02-16T13:52:26;18.50;70.70
12329;DHT22;6230;52.390;10.256;2024-02-16T13:54:51;18.50;70.90
12329;DHT22;6230;52.390;10.256;2024-02-16T13:57:17;18.50;70.80
12329;DHT22;6230;52.390;10.256;2024-02-16T13:59:43;18.50;70.70
12329;DHT22;6230;52.390;10.256;2024-02-16T14:02:09;18.40;70.70
12329;DHT22;6230;52.390;10.256;2024-02-16T14:04:36;18.40;70.70
12329;DHT22;6230;52.390;10.256;2024-02-16T14:07:02;18.40;70.80
12329;DHT22;6230;52.390;10.256;2024-02-16T14:09:27;18.40;70.80
12329;DHT22;6230;52.390;10.256;2024-02-16T14:11:53;18.40;70.90
12329;DHT22;6230;52.390;10.256;2024-02-16T14:14:20;18.30;70.80
12329;DHT22;6230;52.390;10.256;2024-02-16T14:16:47;18.30;70.90
12329;DHT22;6230;52.390;10.256;2024-02-16T14:19:13;18.20;70.90
12329;DHT22;6230;52.390;10.256;2024-02-16T14:21:38;18.20;70.90
12329;DHT22;6230;52.390;10.256;2024-02-16T14:24:04;18.10;71.00
12329;DHT22;6230;52.390;10.256;2024-02-16T14:26:30;18.10;71.10
12329;DHT22;6230;52.390;10.256;2024-02-16T14:28:56;18.00;71.20
12329;DHT22;6230;52.390;10.256;2024-02-16T14:31:22;18.00;71.20
12329;DHT22;6230;52.390;10.256;2024-02-16T14:33:48;18.00;71.30
12329;DHT22;6230;52.390;10.256;2024-02-16T14:36:14;17.90;71.20
12329;DHT22;6230;52.390;10.256;2024-02-16T14:38:40;17.90;71.30
12329;DHT22;6230;52.390;10.256;2024-02-16T14:41:05;17.90;71.40
12329;DHT22;6230;52.390;10.256;2024-02-16T14:43:32;17.80;71.40
12329;DHT22;6230;52.390;10.256;2024-02-16T14:46:00;17.80;71.50
12329;DHT22;6230;52.390;10.256;2024-02-16T14:48:27;17.80;71.50
12329;DHT22;6230;52.390;10.256;2024-02-16T14:50:53;17.80;71.50
12329;DHT22;6230;52.390;10.256;2024-02-16T14:53:19;17.70;71.50
12329;DHT22;6230;52.390;10.256;2024-02-16T14:55:46;17.70;71.60
12329;DHT22;6230;52.390;10.256;2024-02-16T14:58:12;17.70;71.60
12329;DHT22;6230;52.390;10.256;2024-02-16T15:00:37;17.70;71.70
12329;DHT22;6230;52.390;10.256;2024-02-16T15:03:03;17.60;71.60
12329;DHT22;6230;52.390;10.256;2024-02-16T15:05:29;17.60;71.70
12329;DHT22;6230;52.390;10.256;2024-02-16T15:07:54;17.60;71.80
12329;DHT22;6230;52.390;10.256;2024-02-16T15:10:20;17.60;71.80
12329;DHT22;6230;52.390;10.256;2024-02-16T15:12:45;17.60;71.80
12329;DHT22;6230;52.390;10.256;2024-02-16T15:15:11;17.50;71.80
12329;DHT22;6230;52.390;10.256;2024-02-16T15:17:38;17.50;71.80
12329;DHT22;6230;52.390;10.256;2024-02-16T15:20:06;17.50;71.80
12329;DHT22;6230;52.390;10.256;2024-02-16T15:22:33;17.50;71.90
12329;DHT22;6230;52.390;10.256;2024-02-16T15:24:58;17.50;71.90